Time;durP1;ratioP1;P1;durP2;ratioP2;P2;SDS_P1;SDS_P2;PMS_P1;PMS_P2;Temp;Humidity;BMP_temperature;BMP_pressure;BME280_temperature;BME280_humidity;BME280_pressure;Samples;Min_cycle;Max_cycle;Signal;HPM_P1;HPM_P2
2021/03/10 00:00:21;;;;;;;28.51;17.36;;;;;;;2.01;84.51;99592.97;2011185;80;20853;-74
2021/03/10 00:03:22;;;;;;;24.64;15.40;;;;;;;2.00;84.43;99599.78;2011086;80;20334;-75
2021/03/10 00:06:24;;;;;;;27.01;16.77;;;;;;;1.97;84.27;99599.66;2010951;79;20362;-74
2021/03/10 00:09:25;;;;;;;28.52;16.96;;;;;;;1.91;84.04;99607.13;2011040;80;20327;-74
2021/03/10 00:12:27;;;;;;;25.89;16.30;;;;;;;1.83;83.89;99605.16;2011089;80;20379;-74
2021/03/10 00:15:29;;;;;;;27.99;15.90;;;;;;;1.80;83.91;99609.34;2011407;80;20406;-75
2021/03/10 00:18:31;;;;;;;25.52;16.74;;;;;;;1.81;83.87;99615.34;2011177;80;20814;-75
2021/03/10 00:21:33;;;;;;;24.27;15.40;;;;;;;1.80;83.81;99611.06;2010829;80;20319;-75
2021/03/10 00:24:35;;;;;;;25.59;15.74;;;;;;;1.77;83.80;99610.91;2011363;80;20705;-75
2021/03/10 00:27:37;;;;;;;25.70;15.68;;;;;;;1.73;83.82;99614.19;2010672;80;20338;-74
2021/03/10 00:30:39;;;;;;;23.09;15.55;;;;;;;1.74;83.96;99610.81;2011438;80;20311;-74
2021/03/10 00:33:40;;;;;;;25.36;15.63;;;;;;;1.69;84.14;99612.34;2060735;70;20369;-71
2021/03/10 00:36:42;;;;;;;25.59;16.23;;;;;;;1.68;84.68;99615.75;2022061;80;20337;-71
2021/03/10 00:39:44;;;;;;;25.79;16.46;;;;;;;1.73;84.87;99624.44;2022577;80;20328;-71
2021/03/10 00:42:46;;;;;;;23.79;16.11;;;;;;;1.76;84.92;99622.84;2022090;80;20312;-69
2021/03/10 00:45:49;;;;;;;24.80;15.26;;;;;;;1.78;85.04;99630.56;2021833;80;20362;-69
2021/03/10 00:48:50;;;;;;;23.44;16.10;;;;;;;1.83;84.92;99631.63;2021633;80;20482;-69
2021/03/10 00:51:52;;;;;;;23.58;16.91;;;;;;;1.84;85.00;99627.38;2022397;80;20308;-69
2021/03/10 00:54:54;;;;;;;23.14;15.88;;;;;;;1.83;85.02;99623.06;2022541;80;20700;-69
2021/03/10 00:57:55;;;;;;;24.58;16.69;;;;;;;1.81;84.97;99623.03;2021785;80;20373;-69
2021/03/10 01:00:57;;;;;;;24.19;15.11;;;;;;;1.80;84.97;99623.84;2023682;80;20324;-69
2021/03/10 01:03:59;;;;;;;23.09;15.95;;;;;;;1.81;84.78;99630.72;2022053;80;20335;-69
2021/03/10 01:07:00;;;;;;;22.63;15.40;;;;;;;1.81;84.81;99620.47;2022090;80;20340;-69
2021/03/10 01:10:08;;;;;;;25.24;15.15;;;;;;;1.80;84.93;99622.16;2021448;80;20323;-68
2021/03/10 01:13:10;;;;;;;23.91;15.34;;;;;;;1.81;84.98;99612.78;2021355;80;20336;-69
2021/03/10 01:16:12;;;;;;;25.06;15.85;;;;;;;1.80;84.89;99605.94;2021845;80;20860;-69
2021/03/10 01:19:14;;;;;;;23.41;14.70;;;;;;;1.78;84.99;99610.97;2022219;80;20326;-68
2021/03/10 01:22:16;;;;;;;23.34;15.54;;;;;;;1.78;84.81;99610.97;2022329;80;20316;-69
2021/03/10 01:25:19;;;;;;;22.54;14.34;;;;;;;1.73;84.90;99612.50;2022037;80;20333;-69
2021/03/10 01:28:21;;;;;;;24.39;15.19;;;;;;;1.71;85.01;99605.59;2022642;80;20444;-69
2021/03/10 01:31:23;;;;;;;24.04;15.60;;;;;;;1.65;84.94;99605.41;2021726;80;20311;-69
2021/03/10 01:34:25;;;;;;;23.29;14.75;;;;;;;1.61;84.92;99601.84;2021679;80;20780;-69
2021/03/10 01:37:26;;;;;;;21.58;15.02;;;;;;;1.60;84.54;99605.22;2021522;80;20312;-69
2021/03/10 01:40:28;;;;;;;23.45;14.80;;;;;;;1.57;84.42;99612.78;2022346;80;20328;-69
2021/03/10 01:43:30;;;;;;;21.26;14.55;;;;;;;1.56;84.24;99611.06;2021970;80;20341;-69
2021/03/10 01:46:41;;;;;;;22.40;14.99;;;;;;;1.59;84.01;99615.41;2021676;80;20365;-69
2021/03/10 01:49:44;;;;;;;24.29;15.45;;;;;;;1.59;83.95;99616.28;2022141;80;20329;-69
2021/03/10 01:52:47;;;;;;;23.85;15.48;;;;;;;1.59;84.11;99613.72;2021957;80;20313;-69
2021/03/10 01:55:52;;;;;;;22.89;14.13;;;;;;;1.60;84.15;99612.03;2021314;80;20315;-69
2021/03/10 01:58:54;;;;;;;23.69;15.31;;;;;;;1.56;84.40;99612.75;2021800;80;20296;-69
2021/03/10 02:01:56;;;;;;;25.05;14.36;;;;;;;1.55;84.52;99623.78;2021706;80;20316;-69
2021/03/10 02:04:58;;;;;;;21.58;14.55;;;;;;;1.56;84.71;99621.28;2021880;80;20312;-69
2021/03/10 02:08:15;;;;;;;20.58;13.71;;;;;;;1.55;84.93;99622.09;2021202;80;20337;-69
2021/03/10 02:11:26;;;;;;;21.83;14.73;;;;;;;1.55;84.88;99613.56;2021762;80;20309;-68
2021/03/10 02:14:38;;;;;;;21.95;14.56;;;;;;;1.58;85.13;99619.66;2020966;80;20798;-69
2021/03/10 02:17:48;;;;;;;22.17;14.16;;;;;;;1.57;85.39;99615.34;2021688;80;20836;-68
2021/03/10 02:20:56;;;;;;;23.69;14.15;;;;;;;1.59;85.48;99613.72;2021054;80;21246;-69
2021/03/10 02:24:16;;;;;;;22.91;14.10;;;;;;;1.60;85.54;99614.59;2021986;80;20377;-69
2021/03/10 02:27:49;;;;;;;22.89;14.14;;;;;;;1.61;85.53;99606.09;2021466;80;20369;-69
2021/03/10 02:30:53;;;;;;;23.02;14.16;;;;;;;1.62;85.53;99597.63;2021879;80;20320;-69
2021/03/10 02:33:57;;;;;;;23.16;14.56;;;;;;;1.60;85.38;99600.09;2021477;80;20453;-69
2021/03/10 02:37:01;;;;;;;22.64;14.98;;;;;;;1.61;85.21;99604.41;2021650;80;20312;-69
2021/03/10 02:40:06;;;;;;;22.17;14.80;;;;;;;1.63;84.82;99601.91;2021810;80;20867;-69
2021/03/10 02:43:09;;;;;;;22.33;14.49;;;;;;;1.62;84.80;99613.84;2017404;80;20462;-69
2021/03/10 02:46:13;;;;;;;21.27;14.51;;;;;;;1.59;84.99;99616.28;2021976;80;20335;-69
2021/03/10 02:49:16;;;;;;;22.56;14.81;;;;;;;1.57;84.92;99624.72;2021201;80;20333;-69
2021/03/10 02:52:18;;;;;;;22.08;14.98;;;;;;;1.59;84.75;99617.97;2021404;80;20353;-69
2021/03/10 02:55:20;;;;;;;21.45;14.56;;;;;;;1.57;84.49;99615.34;2021414;80;20319;-69
2021/03/10 02:58:22;;;;;;;21.96;15.01;;;;;;;1.54;84.51;99614.38;2021626;80;20351;-69
2021/03/10 03:01:24;;;;;;;20.96;13.94;;;;;;;1.56;84.49;99615.31;2022055;80;20331;-70
2021/03/10 03:04:26;;;;;;;19.91;14.48;;;;;;;1.56;84.37;99620.41;2023594;80;20341;-69
2021/03/10 03:07:27;;;;;;;22.64;15.15;;;;;;;1.57;84.50;99620.47;2024389;80;20320;-69
2021/03/10 03:10:32;;;;;;;21.73;15.00;;;;;;;1.58;84.57;99614.53;2023541;80;20961;-69
2021/03/10 03:13:34;;;;;;;21.90;14.49;;;;;;;1.59;84.86;99616.28;2024032;80;21527;-69
2021/03/10 03:16:36;;;;;;;22.51;14.74;;;;;;;1.61;84.86;99614.63;2024027;80;20454;-69
2021/03/10 03:19:38;;;;;;;22.25;14.52;;;;;;;1.61;85.06;99612.06;2023600;80;20315;-69
2021/03/10 03:22:46;;;;;;;20.95;14.63;;;;;;;1.63;85.16;99617.28;2023767;80;20349;-69
2021/03/10 03:25:49;;;;;;;23.70;14.75;;;;;;;1.61;85.15;99627.44;2023482;80;20341;-69
2021/03/10 03:28:53;;;;;;;24.66;15.55;;;;;;;1.63;85.27;99625.81;2023740;80;20599;-69
2021/03/10 03:31:55;;;;;;;23.05;14.48;;;;;;;1.64;85.42;99627.56;2023678;80;20315;-69
2021/03/10 03:34:58;;;;;;;22.51;14.21;;;;;;;1.67;85.35;99630.22;2023653;80;20340;-69
2021/03/10 03:38:14;;;;;;;23.30;14.86;;;;;;;1.69;85.22;99622.59;2023201;80;20431;-69
2021/03/10 03:41:19;;;;;;;25.79;15.56;;;;;;;1.66;85.05;99638.72;2024352;80;20361;-69
2021/03/10 03:44:20;;;;;;;27.13;15.21;;;;;;;1.68;85.10;99633.66;2023078;80;20308;-69
2021/03/10 03:47:22;;;;;;;22.96;14.00;;;;;;;1.67;85.16;99630.22;2023517;80;20324;-70
2021/03/10 03:50:26;;;;;;;23.23;14.94;;;;;;;1.67;85.25;99635.34;2024094;80;20814;-70
2021/03/10 03:53:28;;;;;;;22.55;14.36;;;;;;;1.66;85.43;99628.50;2023438;80;20767;-70
2021/03/10 03:56:31;;;;;;;22.45;14.60;;;;;;;1.68;85.45;99631.09;2024239;80;20355;-70
2021/03/10 03:59:32;;;;;;;21.90;14.26;;;;;;;1.62;85.81;99636.00;2024154;80;20332;-70
2021/03/10 04:02:34;;;;;;;25.27;14.93;;;;;;;1.65;86.14;99633.56;2022884;80;20335;-70
2021/03/10 04:05:36;;;;;;;22.25;14.27;;;;;;;1.70;86.24;99626.91;2022515;80;20450;-69
2021/03/10 04:08:42;;;;;;;22.63;14.45;;;;;;;1.74;86.17;99626.19;2023241;80;20418;-69
2021/03/10 04:11:49;;;;;;;22.49;14.46;;;;;;;1.74;86.10;99626.19;2022584;80;20312;-70
2021/03/10 04:14:50;;;;;;;22.11;13.76;;;;;;;1.76;85.99;99634.78;2022170;80;20454;-70
2021/03/10 04:17:52;;;;;;;21.55;13.68;;;;;;;1.77;85.96;99641.63;2022213;80;20353;-70
2021/03/10 04:20:54;;;;;;;21.95;14.21;;;;;;;1.77;85.87;99632.25;2022007;80;20304;-71
2021/03/10 04:23:57;;;;;;;22.92;13.89;;;;;;;1.78;85.80;99628.88;2022449;80;20929;-70
2021/03/10 04:26:58;;;;;;;21.01;13.65;;;;;;;1.77;85.94;99641.63;2022906;80;20342;-70
2021/03/10 04:30:01;;;;;;;23.54;15.11;;;;;;;1.79;85.93;99640.88;2022738;80;20789;-70
2021/03/10 04:33:03;;;;;;;20.21;13.95;;;;;;;1.79;85.97;99653.66;2022468;79;20349;-70
2021/03/10 04:36:05;;;;;;;20.45;14.49;;;;;;;1.83;85.88;99641.88;2025031;80;20416;-69
2021/03/10 04:39:07;;;;;;;22.59;15.18;;;;;;;1.86;85.81;99630.84;2022617;80;20292;-70
2021/03/10 04:42:09;;;;;;;23.95;15.14;;;;;;;1.85;85.95;99636.78;2022675;80;20334;-70
2021/03/10 04:45:12;;;;;;;24.79;15.20;;;;;;;1.85;86.15;99642.78;2021845;80;20312;-70
2021/03/10 04:48:14;;;;;;;24.73;15.16;;;;;;;1.88;86.12;99634.34;2022450;80;21033;-70
2021/03/10 04:51:16;;;;;;;25.46;16.70;;;;;;;1.90;86.02;99643.81;2025526;80;20304;-71
2021/03/10 04:54:17;;;;;;;26.79;16.21;;;;;;;1.92;86.37;99644.72;2022012;80;20344;-71
2021/03/10 04:57:19;;;;;;;27.83;16.55;;;;;;;1.95;86.26;99646.50;2022499;80;20341;-71
2021/03/10 05:00:21;;;;;;;23.02;14.95;;;;;;;1.97;85.95;99648.28;2022316;80;20346;-71
2021/03/10 05:03:22;;;;;;;21.41;14.51;;;;;;;1.99;85.72;99653.50;2021404;80;20351;-71
2021/03/10 05:06:24;;;;;;;23.75;15.35;;;;;;;1.94;85.53;99650.75;2022021;80;20397;-71
2021/03/10 05:09:26;;;;;;;25.71;16.16;;;;;;;1.89;85.77;99649.75;2022030;80;20725;-71
2021/03/10 05:12:30;;;;;;;22.02;15.10;;;;;;;1.91;86.05;99652.34;2022279;80;20393;-71
2021/03/10 05:15:31;;;;;;;21.39;13.82;;;;;;;1.92;86.08;99659.22;2022361;80;20341;-71
2021/03/10 05:18:33;;;;;;;18.33;14.14;;;;;;;1.93;86.09;99658.41;2021973;80;20529;-71
2021/03/10 05:21:35;;;;;;;20.34;13.56;;;;;;;1.95;86.02;99657.63;2022800;80;20355;-70
2021/03/10 05:24:36;;;;;;;22.55;13.48;;;;;;;1.96;85.84;99659.38;2021701;80;20332;-71
2021/03/10 05:27:38;;;;;;;20.92;14.66;;;;;;;1.94;85.83;99665.25;2022251;80;20327;-70
2021/03/10 05:30:40;;;;;;;21.01;13.63;;;;;;;1.93;85.84;99674.63;2022073;80;20320;-71
2021/03/10 05:33:42;;;;;;;22.21;14.63;;;;;;;1.94;85.86;99668.69;2022303;80;20434;-71
2021/03/10 05:36:43;;;;;;;20.91;14.27;;;;;;;1.95;85.78;99664.44;2022665;80;20307;-71
2021/03/10 05:39:47;;;;;;;20.80;14.46;;;;;;;1.96;85.84;99667.03;2021618;80;20885;-70
2021/03/10 05:42:51;;;;;;;21.30;14.23;;;;;;;1.97;85.69;99660.22;2022427;80;20327;-71
2021/03/10 05:45:52;;;;;;;23.89;14.73;;;;;;;1.95;85.84;99654.19;2020543;80;20446;-70
2021/03/10 05:48:54;;;;;;;25.11;16.15;;;;;;;1.97;85.95;99667.91;2022866;80;20354;-70
2021/03/10 05:51:57;;;;;;;25.42;15.18;;;;;;;1.97;85.93;99661.09;2021544;80;20874;-70
2021/03/10 05:55:00;;;;;;;21.15;14.55;;;;;;;1.97;85.97;99663.66;2021906;80;20337;-70
2021/03/10 05:58:08;;;;;;;22.31;15.36;;;;;;;2.00;86.02;99660.38;2021594;80;20369;-70
2021/03/10 06:01:10;;;;;;;21.83;14.71;;;;;;;1.99;86.18;99656.06;2022134;80;20296;-71
2021/03/10 06:04:12;;;;;;;21.89;14.30;;;;;;;2.00;86.32;99655.25;2021867;80;20546;-71
2021/03/10 06:07:24;;;;;;;23.17;14.76;;;;;;;2.01;86.32;99662.09;2021843;80;20607;-71
2021/03/10 06:10:47;;;;;;;21.85;14.74;;;;;;;2.03;86.45;99663.88;2021743;80;20362;-70
2021/03/10 06:13:49;;;;;;;20.70;13.60;;;;;;;2.08;86.42;99679.41;2021567;80;20320;-71
2021/03/10 06:17:05;;;;;;;22.79;14.89;;;;;;;2.11;86.39;99671.81;2021525;80;20332;-70
2021/03/10 06:20:07;;;;;;;20.98;14.15;;;;;;;2.15;86.24;99676.22;2021593;80;20319;-70
2021/03/10 06:23:14;;;;;;;22.65;14.38;;;;;;;2.17;86.08;99673.75;2021796;80;20351;-70
2021/03/10 06:26:24;;;;;;;22.26;14.26;;;;;;;2.19;86.07;99670.41;2021918;80;20337;-70
2021/03/10 06:29:26;;;;;;;20.80;14.39;;;;;;;2.17;86.03;99669.47;2021499;80;20705;-70
2021/03/10 06:32:28;;;;;;;22.45;15.49;;;;;;;2.21;85.98;99676.44;2021616;80;20316;-72
2021/03/10 06:35:31;;;;;;;23.09;16.34;;;;;;;2.23;86.01;99681.63;2020995;80;20347;-72
2021/03/10 06:38:33;;;;;;;23.95;15.85;;;;;;;2.25;86.08;99688.53;2020954;80;20373;-71
2021/03/10 06:41:36;;;;;;;29.39;16.55;;;;;;;2.28;86.23;99685.19;2021384;80;20346;-72
2021/03/10 06:44:49;;;;;;;25.21;16.04;;;;;;;2.28;86.59;99683.50;2020963;80;20335;-72
2021/03/10 06:47:52;;;;;;;26.63;16.24;;;;;;;2.36;86.86;99684.66;2021890;80;21166;-72
2021/03/10 06:50:54;;;;;;;26.86;16.71;;;;;;;2.44;86.79;99692.56;2021473;80;20970;-73
2021/03/10 06:53:56;;;;;;;28.20;17.79;;;;;;;2.51;86.86;99697.06;2021308;80;20308;-73
2021/03/10 06:57:05;;;;;;;26.69;17.08;;;;;;;2.57;87.07;99717.78;2021704;80;20961;-72
2021/03/10 07:00:07;;;;;;;27.17;16.88;;;;;;;2.65;86.93;99707.75;2025028;80;20307;-73
2021/03/10 07:03:11;;;;;;;26.40;16.80;;;;;;;2.70;87.00;99706.25;2020582;80;20256;-70
2021/03/10 07:06:15;;;;;;;26.56;18.16;;;;;;;2.73;86.98;99709.75;2021478;80;20416;-74
2021/03/10 07:09:17;;;;;;;26.56;16.88;;;;;;;2.78;87.05;99716.72;2021836;80;20341;-73
2021/03/10 07:12:21;;;;;;;26.48;18.40;;;;;;;2.83;87.19;99717.72;2022213;80;20308;-75
2021/03/10 07:15:23;;;;;;;28.20;17.95;;;;;;;2.90;87.19;99717.13;2021851;80;20344;-74
2021/03/10 07:18:27;;;;;;;29.29;18.44;;;;;;;2.97;87.15;99726.72;2021312;80;20423;-74
2021/03/10 07:21:39;;;;;;;27.85;18.31;;;;;;;2.98;87.26;99729.34;2021341;80;20324;-74
2021/03/10 07:24:59;;;;;;;30.96;19.61;;;;;;;3.05;87.35;99730.41;2021807;80;20328;-77
2021/03/10 07:28:04;;;;;;;31.46;19.88;;;;;;;3.13;87.55;99733.22;2021619;80;20331;-78
2021/03/10 07:31:16;;;;;;;29.84;19.25;;;;;;;3.21;87.57;99737.75;2022106;80;20736;-77
2021/03/10 07:34:24;;;;;;;29.56;18.88;;;;;;;3.32;87.44;99733.81;2021353;80;20319;-78
2021/03/10 07:37:26;;;;;;;31.15;20.20;;;;;;;3.45;87.22;99731.63;2023537;80;20331;-77
2021/03/10 07:40:27;;;;;;;35.41;20.83;;;;;;;3.55;87.07;99737.03;2021724;80;20304;-77
2021/03/10 07:43:39;;;;;;;31.64;19.88;;;;;;;3.66;87.02;99747.63;2021584;80;20869;-79
2021/03/10 07:46:42;;;;;;;33.59;20.39;;;;;;;3.73;86.92;99749.53;2022122;80;20883;-75
2021/03/10 07:49:55;;;;;;;31.20;20.20;;;;;;;3.81;86.76;99758.34;2022080;80;20316;-75
2021/03/10 07:52:56;;;;;;;32.60;21.20;;;;;;;3.87;86.61;99753.38;2024775;80;20345;-77
2021/03/10 07:55:58;;;;;;;29.95;20.74;;;;;;;4.00;86.39;99756.28;2022984;80;20320;-79
2021/03/10 07:59:13;;;;;;;32.13;20.51;;;;;;;4.11;85.97;99760.00;2023098;80;20346;-78
2021/03/10 08:02:19;;;;;;;30.17;20.84;;;;;;;4.19;85.82;99750.81;2022126;80;20312;-79
2021/03/10 08:05:26;;;;;;;31.61;21.70;;;;;;;4.31;85.82;99748.59;2022730;80;20215;-79
2021/03/10 08:08:38;;;;;;;30.75;21.27;;;;;;;4.39;85.84;99746.19;2022606;80;20312;-80
2021/03/10 08:11:43;;;;;;;31.31;20.89;;;;;;;4.47;85.47;99736.97;2023242;80;20304;-80
2021/03/10 08:14:47;;;;;;;30.94;21.08;;;;;;;4.59;85.09;99728.72;2022294;80;20300;-78
2021/03/10 08:17:49;;;;;;;33.01;21.51;;;;;;;4.73;85.08;99735.06;2026506;80;20311;-79
2021/03/10 08:20:51;;;;;;;32.71;21.99;;;;;;;4.87;84.78;99731.13;2022460;80;20320;-78
2021/03/10 08:23:59;;;;;;;32.22;22.29;;;;;;;4.98;84.59;99727.09;2021465;80;20371;-78
2021/03/10 08:27:01;;;;;;;30.64;21.60;;;;;;;5.13;84.24;99736.88;2022736;80;20320;-77
2021/03/10 08:30:05;;;;;;;33.45;22.70;;;;;;;5.23;83.84;99728.53;2022917;80;20369;-75
2021/03/10 08:33:10;;;;;;;33.05;22.02;;;;;;;5.34;83.67;99727.03;2021959;80;20349;-76
2021/03/10 08:36:12;;;;;;;34.96;23.89;;;;;;;5.44;83.38;99734.16;2022683;80;20515;-81
2021/03/10 08:39:16;;;;;;;37.16;23.35;;;;;;;5.59;83.10;99736.19;2024965;80;20392;-78
2021/03/10 08:42:19;;;;;;;32.63;22.88;;;;;;;5.71;82.36;99728.69;2022527;80;20304;-78
2021/03/10 08:45:22;;;;;;;33.08;23.00;;;;;;;5.83;82.05;99733.22;2022556;80;20328;-79
2021/03/10 08:48:30;;;;;;;34.67;23.19;;;;;;;5.93;81.65;99732.63;2026349;80;20335;-77
2021/03/10 08:51:32;;;;;;;35.19;23.88;;;;;;;6.02;80.79;99727.63;2022819;80;20320;-76
2021/03/10 08:54:47;;;;;;;34.34;24.90;;;;;;;6.07;80.43;99726.00;2022215;80;20608;-78
2021/03/10 08:57:49;;;;;;;34.91;23.67;;;;;;;6.18;80.05;99728.78;2022956;80;20740;-77
2021/03/10 09:00:51;;;;;;;31.24;22.84;;;;;;;6.20;79.30;99724.53;2021509;80;20320;-77
2021/03/10 09:03:52;;;;;;;34.16;23.31;;;;;;;6.26;79.13;99736.66;2021445;80;20562;-78
2021/03/10 09:06:58;;;;;;;33.41;23.74;;;;;;;6.37;79.24;99737.72;2022161;80;20327;-77
2021/03/10 09:10:08;;;;;;;33.84;24.55;;;;;;;6.53;79.16;99738.88;2022982;80;20365;-78
2021/03/10 09:13:10;;;;;;;35.08;23.58;;;;;;;6.52;78.99;99730.25;2021688;80;21220;-77
2021/03/10 09:16:12;;;;;;;32.96;23.14;;;;;;;6.61;78.48;99737.28;2021733;80;20730;-78
2021/03/10 09:19:14;;;;;;;33.08;24.40;;;;;;;6.73;78.47;99734.91;2022040;80;20335;-79
2021/03/10 09:22:20;;;;;;;33.38;23.58;;;;;;;6.90;78.19;99737.75;2021926;80;20324;-78
2021/03/10 09:25:38;;;;;;;30.41;21.99;;;;;;;6.96;77.82;99738.72;2021415;80;21089;-77
2021/03/10 09:28:40;;;;;;;32.89;22.89;;;;;;;7.03;77.74;99739.69;2021388;80;20473;-77
2021/03/10 09:31:52;;;;;;;30.52;22.85;;;;;;;7.00;76.86;99731.88;2021034;80;20415;-79
2021/03/10 09:34:54;;;;;;;35.83;24.95;;;;;;;7.06;76.76;99734.56;2022246;80;20405;-78
2021/03/10 09:38:03;;;;;;;33.90;22.63;;;;;;;7.13;76.62;99728.66;2022132;80;21040;-79
2021/03/10 09:41:05;;;;;;;33.36;22.35;;;;;;;7.25;76.73;99728.84;2022231;80;20309;-79
2021/03/10 09:44:08;;;;;;;32.00;22.71;;;;;;;7.37;76.49;99717.81;2021279;80;20339;-79
2021/03/10 09:47:13;;;;;;;29.23;21.75;;;;;;;7.48;75.99;99730.84;2022077;80;20363;-79
2021/03/10 09:50:33;;;;;;;31.36;21.92;;;;;;;7.57;75.47;99718.06;2021663;80;20453;-79
2021/03/10 09:53:42;;;;;;;31.67;22.36;;;;;;;7.64;74.05;99716.41;2022303;80;20332;-79
2021/03/10 09:56:50;;;;;;;30.37;20.91;;;;;;;7.69;73.82;99710.44;2022299;80;20355;-79
2021/03/10 09:59:53;;;;;;;29.84;21.33;;;;;;;7.84;73.27;99702.03;2022819;80;20246;-79
2021/03/10 10:02:55;;;;;;;30.76;21.56;;;;;;;7.97;73.28;99698.72;2022244;80;20624;-80
2021/03/10 10:06:10;;;;;;;28.98;21.55;;;;;;;8.15;73.05;99703.22;2022800;80;20334;-79
2021/03/10 10:09:11;;;;;;;29.36;21.83;;;;;;;8.15;72.63;99695.47;2022848;80;20332;-79
2021/03/10 10:12:13;;;;;;;31.23;21.50;;;;;;;8.24;72.76;99692.97;2025776;80;20222;-79
2021/03/10 10:15:18;;;;;;;30.34;21.51;;;;;;;8.34;72.99;99693.97;2023715;80;21205;-80
2021/03/10 10:18:20;;;;;;;28.21;19.79;;;;;;;8.43;72.42;99684.53;2023051;80;20718;-81
2021/03/10 10:21:21;;;;;;;29.66;21.24;;;;;;;8.55;71.79;99680.34;2023425;80;20212;-78
2021/03/10 10:24:23;;;;;;;26.09;21.33;;;;;;;8.70;71.59;99681.34;2021811;80;20218;-80
2021/03/10 10:27:25;;;;;;;29.56;20.94;;;;;;;8.81;70.29;99680.56;2023104;80;20179;-80
2021/03/10 10:30:27;;;;;;;27.23;21.49;;;;;;;8.92;69.38;99678.91;2023827;80;20174;-81
2021/03/10 10:33:29;;;;;;;29.61;21.21;;;;;;;9.06;69.63;99685.03;2022501;80;20220;-80
2021/03/10 10:36:31;;;;;;;29.06;20.79;;;;;;;9.13;69.39;99679.03;2017644;80;20187;-81
2021/03/10 10:39:50;;;;;;;27.04;20.92;;;;;;;9.25;68.61;99673.94;2016890;80;20213;-80
2021/03/10 10:42:53;;;;;;;28.61;21.15;;;;;;;9.36;67.89;99671.41;2016627;80;20241;-81
2021/03/10 10:45:55;;;;;;;28.86;22.45;;;;;;;9.39;67.59;99667.09;2016060;80;20171;-80
2021/03/10 10:48:57;;;;;;;27.96;21.41;;;;;;;9.49;66.96;99667.13;2015141;80;20179;-79
2021/03/10 10:51:58;;;;;;;28.56;20.11;;;;;;;9.61;67.26;99669.78;2015341;80;20211;-79
2021/03/10 10:55:01;;;;;;;26.10;21.19;;;;;;;9.64;66.85;99670.66;2015119;80;20281;-79
2021/03/10 10:58:02;;;;;;;29.30;21.49;;;;;;;9.79;66.44;99661.19;2014098;80;20201;-79
2021/03/10 11:01:04;;;;;;;28.00;21.06;;;;;;;9.78;65.99;99662.91;2014325;80;20171;-79
2021/03/10 11:04:06;;;;;;;29.10;20.39;;;;;;;9.77;65.75;99656.00;2014125;80;20361;-79
2021/03/10 11:07:08;;;;;;;27.84;19.91;;;;;;;9.92;64.63;99653.47;2014623;80;20315;-79
2021/03/10 11:10:10;;;;;;;27.11;18.63;;;;;;;10.00;63.55;99648.28;2014929;80;20798;-78
2021/03/10 11:13:11;;;;;;;24.54;18.35;;;;;;;10.08;63.71;99643.13;2014232;80;20787;-78
2021/03/10 11:16:13;;;;;;;26.40;19.10;;;;;;;10.25;63.24;99638.84;2014357;80;20199;-79
2021/03/10 11:19:15;;;;;;;24.56;19.54;;;;;;;10.46;61.54;99640.59;2014070;80;20179;-78
2021/03/10 11:22:16;;;;;;;22.31;18.58;;;;;;;10.66;60.29;99631.03;2014708;80;20309;-80
2021/03/10 11:25:18;;;;;;;23.95;17.77;;;;;;;10.85;60.16;99624.97;2013777;80;20209;-79
2021/03/10 11:28:20;;;;;;;24.48;19.52;;;;;;;10.98;59.71;99624.94;2015463;80;20569;-79
2021/03/10 11:31:21;;;;;;;20.99;16.67;;;;;;;11.04;59.10;99627.50;2015603;80;20183;-78
2021/03/10 11:34:23;;;;;;;18.92;15.52;;;;;;;11.02;58.29;99626.66;2016334;80;20750;-79
2021/03/10 11:37:25;;;;;;;20.58;17.42;;;;;;;11.03;57.91;99621.47;2016178;80;20168;-81
2021/03/10 11:40:27;;;;;;;20.71;16.44;;;;;;;11.04;57.24;99619.72;2019420;80;20221;-80
2021/03/10 11:43:29;;;;;;;21.02;16.92;;;;;;;11.12;58.31;99607.56;2015797;80;20216;-80
2021/03/10 11:46:43;;;;;;;20.00;15.61;;;;;;;11.14;56.83;99611.03;2019120;80;20331;-81
2021/03/10 11:49:44;;;;;;;18.24;14.48;;;;;;;11.15;56.67;99607.56;2018663;80;20689;-80
2021/03/10 11:52:51;;;;;;;21.60;14.10;;;;;;;11.19;55.95;99604.94;2017694;80;20367;-80
2021/03/10 11:55:53;;;;;;;21.16;15.43;;;;;;;11.11;53.07;99601.50;2017255;80;20164;-79
2021/03/10 11:58:56;;;;;;;21.06;17.99;;;;;;;10.94;53.70;99603.28;2015158;80;20341;-78
2021/03/10 12:02:00;;;;;;;22.77;14.98;;;;;;;11.09;54.72;99590.25;2014112;80;20176;-77
2021/03/10 12:05:03;;;;;;;17.58;14.40;;;;;;;11.64;54.30;99589.13;2015330;80;20213;-78
2021/03/10 12:08:05;;;;;;;19.61;15.43;;;;;;;11.95;54.38;99593.31;2014547;80;20187;-77
2021/03/10 12:11:07;;;;;;;21.83;17.92;;;;;;;12.06;53.83;99599.31;2013061;80;20192;-77
2021/03/10 12:14:08;;;;;;;22.00;15.71;;;;;;;12.08;53.15;99594.09;2015563;80;20847;-77
2021/03/10 12:17:11;;;;;;;21.96;16.55;;;;;;;12.15;52.77;99584.50;2016821;80;20651;-80
2021/03/10 12:20:13;;;;;;;20.86;16.63;;;;;;;12.26;52.02;99588.75;2015413;80;20204;-76
2021/03/10 12:23:19;;;;;;;18.55;14.18;;;;;;;12.26;51.09;99587.91;2013759;80;20340;-81
2021/03/10 12:26:20;;;;;;;18.42;14.15;;;;;;;12.34;51.67;99586.06;2014840;80;20183;-76
2021/03/10 12:29:22;;;;;;;18.16;14.41;;;;;;;12.44;51.15;99576.47;2014670;80;20322;-76
2021/03/10 12:32:25;;;;;;;17.76;13.32;;;;;;;12.54;49.62;99562.47;2014546;80;20387;-75
2021/03/10 12:35:28;;;;;;;18.14;15.43;;;;;;;12.57;49.70;99555.50;2014491;80;20179;-73
2021/03/10 12:38:30;;;;;;;18.61;13.13;;;;;;;12.56;50.43;99552.88;2014934;80;20293;-74
2021/03/10 12:41:32;;;;;;;17.60;14.59;;;;;;;12.53;50.06;99548.56;2014807;80;21191;-73
2021/03/10 12:44:33;;;;;;;15.34;12.13;;;;;;;12.44;49.99;99542.59;2014467;80;20898;-76
2021/03/10 12:47:35;;;;;;;14.01;12.07;;;;;;;12.26;49.15;99543.63;2013989;80;20171;-76
2021/03/10 12:50:39;;;;;;;16.64;12.88;;;;;;;12.20;49.99;99522.84;2014076;80;20175;-76
2021/03/10 12:53:41;;;;;;;20.34;12.74;;;;;;;12.28;50.71;99519.31;2015004;80;20205;-75
2021/03/10 12:56:42;;;;;;;16.36;13.85;;;;;;;12.27;48.99;99514.13;2014703;80;20341;-76
2021/03/10 12:59:44;;;;;;;15.10;12.38;;;;;;;12.23;49.85;99518.50;2014354;80;20233;-77
2021/03/10 13:02:48;;;;;;;15.79;12.70;;;;;;;12.20;48.40;99508.09;2014420;80;20199;-77
2021/03/10 13:05:51;;;;;;;13.93;10.86;;;;;;;12.03;47.77;99497.00;2013899;80;20200;-76
2021/03/10 13:08:52;;;;;;;14.86;11.18;;;;;;;11.93;48.32;99488.38;2014012;80;20773;-75
2021/03/10 13:11:54;;;;;;;16.30;12.50;;;;;;;11.93;48.36;99501.41;2014703;80;20207;-77
2021/03/10 13:14:58;;;;;;;15.75;13.06;;;;;;;12.01;47.63;99499.56;2013531;80;20179;-76
2021/03/10 13:17:59;;;;;;;12.59;10.00;;;;;;;12.10;46.42;99493.44;2014277;80;20420;-76
2021/03/10 13:21:02;;;;;;;15.09;12.09;;;;;;;11.92;47.19;99481.47;2013832;80;20208;-76
2021/03/10 13:24:05;;;;;;;16.38;10.68;;;;;;;11.85;47.89;99479.78;2013766;80;20215;-75
2021/03/10 13:27:07;;;;;;;14.13;10.09;;;;;;;11.84;48.50;99467.63;2016544;80;20278;-77
2021/03/10 13:30:09;;;;;;;13.05;10.38;;;;;;;11.96;48.18;99470.13;2013018;80;20195;-77
2021/03/10 13:33:11;;;;;;;14.77;10.88;;;;;;;12.02;47.75;99469.22;2014467;80;20195;-80
2021/03/10 13:36:14;;;;;;;13.99;10.38;;;;;;;11.94;47.33;99468.44;2015907;80;20269;-78
2021/03/10 13:39:15;;;;;;;12.01;9.48;;;;;;;11.93;47.76;99453.69;2017100;80;20176;-78
2021/03/10 13:42:17;;;;;;;11.88;9.30;;;;;;;11.86;46.61;99449.44;2014788;80;20691;-75
2021/03/10 13:45:19;;;;;;;13.90;11.07;;;;;;;11.88;46.42;99434.66;2013661;80;20229;-76
2021/03/10 13:48:21;;;;;;;14.38;9.52;;;;;;;12.00;46.36;99439.75;2014353;80;20187;-74
2021/03/10 13:51:23;;;;;;;15.31;11.15;;;;;;;11.99;46.19;99440.63;2014833;80;20391;-80
2021/03/10 13:54:25;;;;;;;15.95;12.11;;;;;;;11.97;46.41;99434.56;2014161;80;20233;-78
2021/03/10 13:57:27;;;;;;;14.26;11.99;;;;;;;11.97;45.47;99427.63;2013731;80;20215;-77
2021/03/10 14:00:29;;;;;;;14.35;11.09;;;;;;;11.93;45.58;99420.72;2014207;80;20637;-80
2021/03/10 14:03:30;;;;;;;11.07;9.43;;;;;;;11.82;45.85;99413.88;2014764;80;20314;-78
2021/03/10 14:06:33;;;;;;;15.36;9.76;;;;;;;11.93;46.07;99412.06;2014210;80;20228;-79
2021/03/10 14:09:35;;;;;;;14.89;11.82;;;;;;;11.98;46.01;99415.47;2014719;80;20314;-82
2021/03/10 14:12:37;;;;;;;14.69;9.52;;;;;;;11.93;44.89;99396.44;2014174;80;20205;-79